Time;durP1;ratioP1;P1;durP2;ratioP2;P2;SDS_P1;SDS_P2;PMS_P1;PMS_P2;Temp;Humidity;BMP_temperature;BMP_pressure;BME280_temperature;BME280_humidity;BME280_pressure;Samples;Min_cycle;Max_cycle;Signal;HPM_P1;HPM_P2
2022/12/10 00:01:10;;;;;;;118.53;59.60;;;;;;;;;;6244929;23;20079;-64
2022/12/10 00:03:37;;;;;;;133.25;61.45;;;;;;;;;;6244842;23;20011;-64
2022/12/10 00:06:04;;;;;;;130.40;61.22;;;;;;;;;;6244711;23;20430;-64
2022/12/10 00:08:30;;;;;;;102.63;56.40;;;;;;;;;;6245431;23;20007;-64
2022/12/10 00:10:57;;;;;;;109.47;56.47;;;;;;;;;;6244953;23;20004;-64
2022/12/10 00:13:23;;;;;;;107.43;54.72;;;;;;;;;;6244897;23;20545;-64
2022/12/10 00:15:49;;;;;;;108.47;52.63;;;;;;;;;;6245003;23;20134;-64
2022/12/10 00:18:15;;;;;;;103.90;54.33;;;;;;;;;;6245060;23;20004;-64
2022/12/10 00:20:41;;;;;;;97.70;51.35;;;;;;;;;;6244803;23;20006;-64
2022/12/10 00:23:07;;;;;;;92.95;48.80;;;;;;;;;;6244669;23;20000;-64
2022/12/10 00:25:33;;;;;;;102.95;49.42;;;;;;;;;;6245263;23;20346;-64
2022/12/10 00:28:00;;;;;;;89.18;45.58;;;;;;;;;;6244962;23;20011;-64
2022/12/10 00:30:26;;;;;;;85.65;47.78;;;;;;;;;;6245229;23;20046;-64
2022/12/10 00:32:52;;;;;;;89.13;49.22;;;;;;;;;;6244455;23;20338;-64
2022/12/10 00:35:18;;;;;;;84.75;44.63;;;;;;;;;;6244968;23;20019;-64
2022/12/10 00:37:45;;;;;;;88.82;47.80;;;;;;;;;;6242716;23;20008;-65
2022/12/10 00:40:11;;;;;;;95.80;49.95;;;;;;;;;;6243020;23;20000;-64
2022/12/10 00:42:37;;;;;;;89.82;45.83;;;;;;;;;;6244658;23;20004;-64
2022/12/10 00:45:04;;;;;;;98.30;49.50;;;;;;;;;;6242813;23;20004;-64
2022/12/10 00:47:30;;;;;;;92.53;48.90;;;;;;;;;;6242906;23;20065;-64
2022/12/10 00:49:57;;;;;;;94.88;49.30;;;;;;;;;;6244605;22;20000;-64
2022/12/10 00:52:24;;;;;;;85.47;44.33;;;;;;;;;;6244715;23;20725;-64
2022/12/10 00:54:50;;;;;;;95.63;45.58;;;;;;;;;;6244672;22;20000;-64
2022/12/10 00:57:16;;;;;;;85.00;44.05;;;;;;;;;;6242994;23;20370;-64
2022/12/10 00:59:42;;;;;;;87.28;44.80;;;;;;;;;;6244921;23;20004;-64
2022/12/10 01:02:09;;;;;;;88.38;46.33;;;;;;;;;;6242264;23;20000;-64
2022/12/10 01:04:35;;;;;;;87.05;43.85;;;;;;;;;;6244785;23;20000;-64
2022/12/10 01:07:01;;;;;;;86.93;42.88;;;;;;;;;;6242820;23;20008;-64
2022/12/10 01:09:29;;;;;;;90.90;45.03;;;;;;;;;;6243032;23;20008;-64
2022/12/10 01:11:56;;;;;;;89.68;45.22;;;;;;;;;;6244452;23;20057;-64
2022/12/10 01:14:24;;;;;;;92.63;44.45;;;;;;;;;;6244326;23;20062;-64
2022/12/10 01:16:50;;;;;;;88.72;42.75;;;;;;;;;;6244527;23;20300;-64
2022/12/10 01:19:16;;;;;;;85.43;43.70;;;;;;;;;;6242809;23;20040;-64
2022/12/10 01:21:43;;;;;;;88.82;43.47;;;;;;;;;;6244583;23;20004;-64
2022/12/10 01:24:09;;;;;;;75.72;41.00;;;;;;;;;;6244287;23;20008;-64
2022/12/10 01:26:35;;;;;;;86.85;41.08;;;;;;;;;;6244806;23;20008;-64
2022/12/10 01:29:01;;;;;;;79.90;39.95;;;;;;;;;;6244769;23;20433;-64
2022/12/10 01:31:32;;;;;;;81.28;40.97;;;;;;;;;;6244429;23;20004;-64
2022/12/10 01:33:58;;;;;;;73.95;37.95;;;;;;;;;;6242743;23;20015;-64
2022/12/10 01:36:27;;;;;;;92.32;41.47;;;;;;;;;;6245328;23;20000;-64
2022/12/10 01:38:54;;;;;;;82.13;38.47;;;;;;;;;;6246384;23;20032;-64
2022/12/10 01:41:22;;;;;;;73.20;36.35;;;;;;;;;;6244957;23;20004;-64
2022/12/10 01:43:57;;;;;;;78.60;36.88;;;;;;;;;;6246331;22;20008;-64
2022/12/10 01:46:28;;;;;;;80.00;40.30;;;;;;;;;;6246488;23;20012;-64
2022/12/10 01:48:56;;;;;;;81.68;40.38;;;;;;;;;;6245871;22;20050;-64
2022/12/10 01:51:23;;;;;;;82.10;39.33;;;;;;;;;;6243573;23;20532;-64
2022/12/10 01:53:49;;;;;;;69.85;36.55;;;;;;;;;;6244909;23;20445;-64
2022/12/10 01:56:16;;;;;;;71.78;37.95;;;;;;;;;;6244878;23;20020;-64
2022/12/10 01:58:43;;;;;;;69.97;37.33;;;;;;;;;;6244636;23;20004;-64
2022/12/10 02:01:25;;;;;;;65.57;35.10;;;;;;;;;;6242984;23;20082;-64
2022/12/10 02:04:06;;;;;;;58.00;33.25;;;;;;;;;;6245276;22;20346;-64
2022/12/10 02:06:46;;;;;;;64.00;31.98;;;;;;;;;;6243563;23;20014;-64
2022/12/10 02:09:18;;;;;;;66.60;33.10;;;;;;;;;;6244711;22;20066;-64
2022/12/10 02:11:49;;;;;;;64.90;32.47;;;;;;;;;;6245276;22;20008;-64
2022/12/10 02:14:24;;;;;;;61.08;32.45;;;;;;;;;;6244110;23;20019;-64
2022/12/10 02:17:02;;;;;;;63.17;32.75;;;;;;;;;;6243379;23;20459;-64
2022/12/10 02:19:40;;;;;;;62.42;32.83;;;;;;;;;;6243345;23;20004;-64
2022/12/10 02:22:06;;;;;;;65.60;32.45;;;;;;;;;;6242884;23;20015;-64
2022/12/10 02:24:34;;;;;;;62.13;32.85;;;;;;;;;;6243327;23;20038;-64
2022/12/10 02:27:19;;;;;;;60.97;29.60;;;;;;;;;;6244532;23;20401;-64
2022/12/10 02:29:47;;;;;;;57.90;29.58;;;;;;;;;;6244495;23;20008;-64
2022/12/10 02:32:17;;;;;;;53.75;28.50;;;;;;;;;;6242866;23;20442;-64
2022/12/10 02:34:45;;;;;;;57.90;30.55;;;;;;;;;;6243058;23;20008;-64
2022/12/10 02:37:22;;;;;;;54.65;28.52;;;;;;;;;;6242642;23;20066;-64
2022/12/10 02:39:55;;;;;;;55.58;28.20;;;;;;;;;;6242851;23;20058;-64
2022/12/10 02:42:22;;;;;;;53.40;27.75;;;;;;;;;;6245094;23;20000;-64
2022/12/10 02:44:49;;;;;;;47.05;27.55;;;;;;;;;;6244364;23;20020;-64
2022/12/10 02:47:20;;;;;;;47.78;25.42;;;;;;;;;;6243435;23;20754;-64
2022/12/10 02:49:48;;;;;;;52.15;26.70;;;;;;;;;;6244235;23;20104;-64
2022/12/10 02:52:18;;;;;;;50.42;26.52;;;;;;;;;;6245452;22;20075;-64
2022/12/10 02:54:47;;;;;;;53.33;28.48;;;;;;;;;;6243121;23;20099;-64
2022/12/10 02:57:21;;;;;;;45.08;24.60;;;;;;;;;;6242328;23;20068;-64
2022/12/10 02:59:47;;;;;;;43.67;24.67;;;;;;;;;;6243111;23;20009;-64
2022/12/10 03:02:17;;;;;;;48.38;27.58;;;;;;;;;;6242655;23;20004;-64
2022/12/10 03:04:43;;;;;;;48.60;26.80;;;;;;;;;;6244521;23;20026;-64
2022/12/10 03:07:12;;;;;;;47.47;26.73;;;;;;;;;;6243210;23;20378;-64
2022/12/10 03:09:41;;;;;;;43.72;25.13;;;;;;;;;;6243145;23;20004;-64
2022/12/10 03:12:09;;;;;;;49.22;26.60;;;;;;;;;;6243636;23;20056;-63
2022/12/10 03:14:36;;;;;;;51.50;27.25;;;;;;;;;;6244142;23;20386;-64
2022/12/10 03:17:04;;;;;;;48.30;24.95;;;;;;;;;;6244194;23;20011;-64
2022/12/10 03:19:32;;;;;;;47.63;24.80;;;;;;;;;;6243778;23;20008;-64
2022/12/10 03:21:59;;;;;;;50.22;24.95;;;;;;;;;;6243986;23;20087;-64
2022/12/10 03:24:25;;;;;;;45.63;24.90;;;;;;;;;;6243552;23;20019;-64
2022/12/10 03:26:52;;;;;;;53.47;25.83;;;;;;;;;;6243061;23;20023;-64
2022/12/10 03:29:22;;;;;;;46.75;26.80;;;;;;;;;;6243403;23;20385;-64
2022/12/10 03:31:49;;;;;;;49.13;25.35;;;;;;;;;;6244266;23;20089;-64
2022/12/10 03:34:15;;;;;;;49.15;27.05;;;;;;;;;;6244232;23;20004;-64
2022/12/10 03:36:42;;;;;;;48.42;26.15;;;;;;;;;;6244948;23;20083;-64
2022/12/10 03:39:08;;;;;;;48.63;24.23;;;;;;;;;;6245661;23;20000;-64
2022/12/10 03:41:35;;;;;;;48.95;25.58;;;;;;;;;;6244897;23;20008;-64
2022/12/10 03:44:01;;;;;;;46.92;25.48;;;;;;;;;;6245560;23;20491;-64
2022/12/10 03:46:29;;;;;;;49.25;24.75;;;;;;;;;;6245428;23;20008;-64
2022/12/10 03:48:58;;;;;;;49.80;26.63;;;;;;;;;;6245340;23;20441;-64
2022/12/10 03:51:24;;;;;;;46.90;25.42;;;;;;;;;;6245186;23;20316;-64
2022/12/10 03:53:51;;;;;;;49.28;24.92;;;;;;;;;;6245322;23;20004;-64
2022/12/10 03:56:17;;;;;;;50.42;25.15;;;;;;;;;;6244889;23;20004;-64
2022/12/10 03:58:43;;;;;;;45.67;24.80;;;;;;;;;;6244833;23;19996;-64
2022/12/10 04:01:10;;;;;;;50.90;26.98;;;;;;;;;;6245484;23;20004;-64
2022/12/10 04:03:36;;;;;;;51.40;26.17;;;;;;;;;;6244783;23;20007;-64
2022/12/10 04:06:10;;;;;;;58.78;28.58;;;;;;;;;;6245457;23;20004;-64
2022/12/10 04:08:36;;;;;;;47.83;26.30;;;;;;;;;;6245182;22;20387;-64
2022/12/10 04:11:07;;;;;;;56.00;27.27;;;;;;;;;;6245005;23;20075;-64
2022/12/10 04:16:28;;;;;;;47.65;25.75;;;;;;;;;;6245161;23;20447;-64
2022/12/10 04:18:59;;;;;;;45.85;24.33;;;;;;;;;;6245329;22;20004;-64
2022/12/10 04:26:57;;;;;;;46.58;24.67;;;;;;;;;;6245039;23;20046;-64
2022/12/10 04:29:25;;;;;;;51.63;25.27;;;;;;;;;;6244732;23;20014;-64
2022/12/10 04:31:51;;;;;;;48.08;22.85;;;;;;;;;;6245201;23;20003;-64
2022/12/10 04:34:18;;;;;;;44.55;23.63;;;;;;;;;;6244632;23;20083;-64
2022/12/10 04:36:44;;;;;;;45.63;23.67;;;;;;;;;;6244794;23;20007;-64
2022/12/10 04:39:13;;;;;;;35.05;21.45;;;;;;;;;;6244587;23;20000;-64
2022/12/10 04:41:40;;;;;;;36.28;21.55;;;;;;;;;;6244709;22;20015;-64
2022/12/10 04:44:07;;;;;;;43.13;20.83;;;;;;;;;;6244975;23;20454;-64
2022/12/10 04:46:33;;;;;;;36.90;20.58;;;;;;;;;;6244867;23;20084;-64
2022/12/10 04:48:59;;;;;;;41.63;21.98;;;;;;;;;;6244912;23;20435;-64
2022/12/10 04:51:25;;;;;;;39.00;22.15;;;;;;;;;;6244900;23;20019;-64
2022/12/10 04:53:51;;;;;;;39.80;21.33;;;;;;;;;;6244811;23;20337;-64
2022/12/10 04:56:17;;;;;;;42.78;21.73;;;;;;;;;;6245024;23;20053;-64
2022/12/10 04:58:44;;;;;;;35.40;20.13;;;;;;;;;;6244620;23;20007;-64
2022/12/10 05:01:11;;;;;;;41.20;21.48;;;;;;;;;;6245260;23;20458;-64
2022/12/10 05:03:37;;;;;;;40.22;20.95;;;;;;;;;;6244908;22;20346;-64
2022/12/10 05:06:08;;;;;;;41.40;22.02;;;;;;;;;;6244951;23;20079;-64
2022/12/10 05:08:34;;;;;;;37.65;21.20;;;;;;;;;;6244272;23;20079;-64
2022/12/10 05:11:04;;;;;;;34.05;19.15;;;;;;;;;;6244723;23;20000;-64
2022/12/10 05:13:30;;;;;;;39.15;19.27;;;;;;;;;;6244480;22;20019;-64
2022/12/10 05:15:56;;;;;;;37.15;20.10;;;;;;;;;;6244981;23;20008;-64
2022/12/10 05:18:23;;;;;;;41.30;20.63;;;;;;;;;;6244645;23;20447;-64
2022/12/10 05:20:49;;;;;;;35.33;20.52;;;;;;;;;;6244827;23;20074;-64
2022/12/10 05:23:27;;;;;;;39.35;20.27;;;;;;;;;;6244631;23;20087;-64
2022/12/10 05:26:02;;;;;;;41.08;20.88;;;;;;;;;;6244763;23;20008;-64
2022/12/10 05:28:29;;;;;;;41.58;21.67;;;;;;;;;;6244711;23;20004;-64
2022/12/10 05:30:55;;;;;;;36.75;20.65;;;;;;;;;;6244682;23;20011;-64
2022/12/10 05:33:22;;;;;;;40.53;20.92;;;;;;;;;;6244985;23;20420;-64
2022/12/10 05:35:54;;;;;;;36.05;21.08;;;;;;;;;;6244376;23;20004;-64
2022/12/10 05:38:20;;;;;;;;;;;;;;;;;;6245079;23;20004;-64
2022/12/10 05:40:47;;;;;;;38.92;20.55;;;;;;;;;;6244466;23;19906;-64
2022/12/10 05:43:13;;;;;;;38.95;21.55;;;;;;;;;;6244889;23;20458;-64
2022/12/10 05:45:39;;;;;;;39.72;21.08;;;;;;;;;;6244302;23;20008;-64
2022/12/10 05:48:06;;;;;;;41.25;21.40;;;;;;;;;;6244956;23;20034;-64
2022/12/10 05:50:32;;;;;;;39.08;20.15;;;;;;;;;;6244368;22;20393;-64
2022/12/10 05:52:58;;;;;;;40.50;21.63;;;;;;;;;;6244618;23;20057;-64
2022/12/10 05:55:26;;;;;;;44.03;22.65;;;;;;;;;;6244473;23;20007;-64
2022/12/10 05:57:52;;;;;;;37.97;20.13;;;;;;;;;;6244567;22;20446;-64
2022/12/10 06:00:21;;;;;;;37.97;20.80;;;;;;;;;;6244554;22;20434;-64
2022/12/10 06:02:47;;;;;;;40.80;20.13;;;;;;;;;;6244518;23;20533;-64
2022/12/10 06:05:13;;;;;;;34.67;19.73;;;;;;;;;;6244203;23;20004;-64
2022/12/10 06:07:39;;;;;;;41.33;21.52;;;;;;;;;;6244533;23;20016;-64
2022/12/10 06:10:05;;;;;;;36.35;20.20;;;;;;;;;;6242167;23;20058;-64
2022/12/10 06:12:31;;;;;;;42.78;21.20;;;;;;;;;;6243220;22;20094;-64
2022/12/10 06:14:58;;;;;;;34.65;18.55;;;;;;;;;;6243211;22;20008;-64
2022/12/10 06:17:25;;;;;;;31.20;18.73;;;;;;;;;;6243295;23;20015;-64
2022/12/10 06:19:51;;;;;;;36.75;19.45;;;;;;;;;;6242516;23;19996;-64
2022/12/10 06:22:17;;;;;;;41.33;18.67;;;;;;;;;;6244107;23;20043;-64
2022/12/10 06:24:43;;;;;;;36.53;19.23;;;;;;;;;;6244749;23;20004;-64
2022/12/10 06:27:09;;;;;;;33.65;18.77;;;;;;;;;;6244868;23;20062;-64
2022/12/10 06:29:36;;;;;;;32.78;18.73;;;;;;;;;;6243876;23;20350;-64
2022/12/10 06:32:02;;;;;;;34.80;19.10;;;;;;;;;;6245301;23;20019;-64
2022/12/10 06:34:28;;;;;;;46.10;20.58;;;;;;;;;;6244749;23;20131;-64
2022/12/10 06:36:54;;;;;;;34.20;18.63;;;;;;;;;;6245282;23;20206;-63
2022/12/10 06:39:20;;;;;;;34.97;19.13;;;;;;;;;;6243532;23;20018;-63
2022/12/10 06:41:46;;;;;;;32.72;19.23;;;;;;;;;;6244527;23;20442;-63
2022/12/10 06:44:13;;;;;;;42.03;19.45;;;;;;;;;;6244398;23;20008;-63
2022/12/10 06:46:42;;;;;;;32.35;18.35;;;;;;;;;;6244842;23;20011;-63
2022/12/10 06:49:08;;;;;;;32.15;19.23;;;;;;;;;;6244647;23;20592;-63
2022/12/10 06:51:34;;;;;;;39.38;20.27;;;;;;;;;;6244456;23;20010;-64
2022/12/10 06:54:00;;;;;;;43.72;20.98;;;;;;;;;;6243361;23;20008;-63
2022/12/10 06:56:27;;;;;;;40.97;22.73;;;;;;;;;;6244839;23;20085;-63
2022/12/10 06:58:53;;;;;;;38.08;21.45;;;;;;;;;;6242931;23;20000;-63
2022/12/10 07:01:20;;;;;;;37.17;20.45;;;;;;;;;;6243060;23;20004;-63
2022/12/10 07:03:50;;;;;;;39.15;22.20;;;;;;;;;;6242688;22;20011;-63
2022/12/10 07:06:16;;;;;;;39.58;20.25;;;;;;;;;;6242794;23;20008;-63
2022/12/10 07:08:42;;;;;;;36.35;19.35;;;;;;;;;;6243092;23;20028;-64
2022/12/10 07:11:09;;;;;;;37.70;19.92;;;;;;;;;;6243096;23;20012;-63
2022/12/10 07:13:36;;;;;;;45.92;22.92;;;;;;;;;;6243271;23;20022;-63
2022/12/10 07:16:02;;;;;;;36.70;21.20;;;;;;;;;;6243943;23;20008;-63
2022/12/10 07:18:28;;;;;;;40.63;20.80;;;;;;;;;;6241843;23;20004;-64
2022/12/10 07:20:55;;;;;;;35.83;19.65;;;;;;;;;;6243639;23;20000;-64
2022/12/10 07:23:21;;;;;;;39.55;21.45;;;;;;;;;;6241534;23;20451;-64
2022/12/10 07:25:47;;;;;;;34.05;19.17;;;;;;;;;;6242990;23;20012;-64
2022/12/10 07:28:13;;;;;;;42.88;22.63;;;;;;;;;;6244457;23;20011;-64
2022/12/10 07:30:39;;;;;;;40.72;22.88;;;;;;;;;;6243940;23;20018;-64
2022/12/10 07:33:05;;;;;;;46.38;24.67;;;;;;;;;;6243599;23;20011;-64
2022/12/10 07:35:31;;;;;;;43.50;21.88;;;;;;;;;;6244421;23;20004;-64
2022/12/10 07:37:58;;;;;;;46.95;21.77;;;;;;;;;;6241732;23;20385;-60
2022/12/10 07:40:24;;;;;;;39.55;20.73;;;;;;;;;;6243822;23;20011;-60
2022/12/10 07:42:50;;;;;;;36.63;21.33;;;;;;;;;;6243846;23;20442;-60
2022/12/10 07:45:16;;;;;;;39.55;21.48;;;;;;;;;;6244319;23;20004;-60
2022/12/10 07:47:42;;;;;;;35.95;20.00;;;;;;;;;;6243713;23;20000;-60
2022/12/10 07:50:09;;;;;;;47.58;22.10;;;;;;;;;;6243462;23;20012;-60
2022/12/10 07:52:35;;;;;;;38.95;21.80;;;;;;;;;;6244170;23;20000;-60
2022/12/10 07:55:01;;;;;;;39.58;20.35;;;;;;;;;;6243839;23;20000;-60
2022/12/10 07:57:29;;;;;;;37.72;20.75;;;;;;;;;;6244145;23;20011;-60
2022/12/10 07:59:55;;;;;;;40.13;20.88;;;;;;;;;;6243827;22;20374;-60
2022/12/10 08:02:21;;;;;;;32.33;19.05;;;;;;;;;;6243720;23;20005;-60
2022/12/10 08:04:47;;;;;;;41.88;20.33;;;;;;;;;;6244166;23;20115;-60
2022/12/10 08:07:13;;;;;;;41.55;20.63;;;;;;;;;;6243540;23;20011;-60
2022/12/10 08:09:39;;;;;;;36.13;21.17;;;;;;;;;;6243684;23;20142;-60
2022/12/10 08:12:06;;;;;;;41.22;21.77;;;;;;;;;;6243850;22;20011;-61
2022/12/10 08:14:33;;;;;;;34.30;19.75;;;;;;;;;;6243818;23;20087;-60
2022/12/10 08:16:59;;;;;;;32.35;19.88;;;;;;;;;;6243372;22;20161;-60
2022/12/10 08:19:25;;;;;;;38.83;19.70;;;;;;;;;;6243641;22;20062;-60
2022/12/10 08:21:51;;;;;;;40.08;20.17;;;;;;;;;;6243732;23;20079;-60
2022/12/10 08:24:17;;;;;;;34.22;19.77;;;;;;;;;;6243867;23;20419;-60
2022/12/10 08:26:43;;;;;;;34.75;19.33;;;;;;;;;;6243987;23;20113;-60
2022/12/10 08:29:09;;;;;;;31.63;18.63;;;;;;;;;;6243637;23;20011;-60
2022/12/10 08:31:36;;;;;;;30.95;18.48;;;;;;;;;;6243546;23;20004;-60
2022/12/10 08:34:02;;;;;;;41.33;19.55;;;;;;;;;;6243238;23;20081;-60
2022/12/10 08:36:28;;;;;;;40.10;19.50;;;;;;;;;;6243823;23;20005;-60
2022/12/10 08:38:55;;;;;;;33.13;18.67;;;;;;;;;;6243163;23;20008;-60
2022/12/10 08:41:22;;;;;;;43.63;19.67;;;;;;;;;;6243059;23;20386;-60
2022/12/10 08:43:48;;;;;;;55.58;21.65;;;;;;;;;;6243338;23;20039;-60
2022/12/10 08:46:15;;;;;;;45.05;19.52;;;;;;;;;;6242703;23;19996;-60
2022/12/10 08:48:41;;;;;;;42.63;20.27;;;;;;;;;;6243558;22;20054;-60
2022/12/10 08:51:08;;;;;;;31.98;20.10;;;;;;;;;;6243119;23;20000;-60
2022/12/10 08:53:35;;;;;;;41.17;19.73;;;;;;;;;;6243387;23;20004;-60
2022/12/10 08:56:01;;;;;;;39.78;20.95;;;;;;;;;;6242756;23;20003;-60
2022/12/10 08:58:27;;;;;;;60.40;24.10;;;;;;;;;;6243285;23;20004;-60
2022/12/10 09:00:53;;;;;;;113.13;29.73;;;;;;;;;;6243041;23;20072;-60
2022/12/10 09:03:19;;;;;;;111.18;28.58;;;;;;;;;;6243779;23;20509;-60
2022/12/10 09:05:46;;;;;;;84.13;23.13;;;;;;;;;;6243595;23;20043;-60
2022/12/10 09:08:12;;;;;;;65.45;21.75;;;;;;;;;;6243580;22;20065;-60
2022/12/10 09:10:39;;;;;;;68.05;23.60;;;;;;;;;;6243747;23;20050;-60
2022/12/10 09:13:06;;;;;;;71.28;23.23;;;;;;;;;;6243346;23;20012;-60
2022/12/10 09:15:32;;;;;;;88.45;26.85;;;;;;;;;;6243434;23;20058;-60
2022/12/10 09:17:58;;;;;;;82.18;35.08;;;;;;;;;;6243340;22;20007;-60
2022/12/10 09:20:24;;;;;;;99.38;36.75;;;;;;;;;;6243270;23;20007;-60
2022/12/10 09:22:50;;;;;;;71.50;36.55;;;;;;;;;;6242903;23;20440;-60
2022/12/10 09:25:17;;;;;;;76.93;36.00;;;;;;;;;;6243229;23;20057;-60
2022/12/10 09:27:43;;;;;;;69.57;37.08;;;;;;;;;;6242917;23;20426;-60
2022/12/10 09:30:10;;;;;;;66.85;36.03;;;;;;;;;;6242552;23;20362;-60
2022/12/10 09:32:36;;;;;;;66.20;38.38;;;;;;;;;;6243218;23;20461;-60
2022/12/10 09:35:03;;;;;;;71.43;38.50;;;;;;;;;;6242608;23;20035;-60
2022/12/10 09:37:29;;;;;;;71.72;38.63;;;;;;;;;;6242851;22;20054;-60
2022/12/10 09:39:55;;;;;;;76.57;40.58;;;;;;;;;;6243243;23;20027;-60
2022/12/10 09:42:22;;;;;;;75.00;41.80;;;;;;;;;;6242732;23;20033;-60
2022/12/10 09:44:49;;;;;;;65.30;37.95;;;;;;;;;;6242057;23;20043;-60
2022/12/10 09:47:15;;;;;;;77.28;39.95;;;;;;;;;;6243052;23;20074;-60
2022/12/10 09:49:41;;;;;;;61.70;35.78;;;;;;;;;;6243113;23;20053;-60
2022/12/10 09:52:11;;;;;;;55.35;31.08;;;;;;;;;;6242760;23;20027;-60
2022/12/10 09:54:43;;;;;;;44.13;25.15;;;;;;;;;;6243087;23;20472;-60
2022/12/10 09:57:22;;;;;;;47.47;26.35;;;;;;;;;;6243469;22;20012;-60
2022/12/10 09:59:49;;;;;;;41.80;23.67;;;;;;;;;;6245505;23;20000;-60
2022/12/10 10:02:32;;;;;;;41.58;23.17;;;;;;;;;;6245234;23;19996;-61
2022/12/10 10:05:01;;;;;;;42.38;22.02;;;;;;;;;;6244640;22;20111;-61
2022/12/10 10:07:29;;;;;;;36.65;20.50;;;;;;;;;;6244049;23;20344;-61
2022/12/10 10:09:57;;;;;;;36.08;19.80;;;;;;;;;;6244761;23;20324;-60
2022/12/10 10:12:24;;;;;;;38.60;20.73;;;;;;;;;;6244437;23;20411;-60
2022/12/10 10:14:50;;;;;;;39.35;20.98;;;;;;;;;;6245368;23;20012;-60
2022/12/10 10:17:27;;;;;;;35.15;20.10;;;;;;;;;;6245489;23;20000;-60
2022/12/10 10:19:54;;;;;;;40.58;21.80;;;;;;;;;;6243968;23;20060;-60
2022/12/10 10:22:20;;;;;;;44.70;22.38;;;;;;;;;;6244241;23;20074;-60
2022/12/10 10:24:47;;;;;;;52.90;27.48;;;;;;;;;;6243843;23;20300;-60
2022/12/10 10:27:17;;;;;;;90.90;43.13;;;;;;;;;;6243433;23;20039;-60
2022/12/10 10:29:48;;;;;;;59.13;31.05;;;;;;;;;;6243660;23;20008;-60
2022/12/10 10:32:25;;;;;;;49.55;26.52;;;;;;;;;;6243824;23;20300;-60
2022/12/10 10:34:55;;;;;;;44.22;20.92;;;;;;;;;;6244945;23;20012;-60
2022/12/10 10:37:22;;;;;;;40.50;22.00;;;;;;;;;;6245412;23;20034;-60
2022/12/10 10:39:50;;;;;;;37.90;21.65;;;;;;;;;;6244956;23;20011;-60
2022/12/10 10:42:24;;;;;;;36.30;20.60;;;;;;;;;;6244526;23;20023;-60
2022/12/10 10:44:51;;;;;;;37.55;21.38;;;;;;;;;;6243609;23;20008;-60
2022/12/10 10:47:30;;;;;;;32.58;20.05;;;;;;;;;;6242742;23;20300;-60
2022/12/10 10:49:58;;;;;;;34.85;20.30;;;;;;;;;;6244053;22;20066;-60
2022/12/10 10:52:27;;;;;;;41.38;21.35;;;;;;;;;;6244095;22;20018;-60
2022/12/10 10:54:53;;;;;;;35.67;20.38;;;;;;;;;;6243142;23;20012;-60
2022/12/10 10:57:29;;;;;;;34.38;18.65;;;;;;;;;;6244197;23;20000;-61
2022/12/10 10:59:57;;;;;;;38.88;19.35;;;;;;;;;;6243874;23;20015;-60
2022/12/10 11:02:23;;;;;;;35.67;19.58;;;;;;;;;;6244399;23;20054;-60
2022/12/10 11:04:51;;;;;;;42.10;20.23;;;;;;;;;;6243601;23;20091;-60
2022/12/10 11:07:21;;;;;;;38.22;19.00;;;;;;;;;;6244033;23;20015;-60
2022/12/10 11:09:48;;;;;;;35.10;19.08;;;;;;;;;;6243807;23;20004;-61
2022/12/10 11:12:33;;;;;;;29.75;17.80;;;;;;;;;;6244122;23;20012;-60
2022/12/10 11:14:59;;;;;;;31.42;17.48;;;;;;;;;;6244025;23;20086;-61
2022/12/10 11:17:26;;;;;;;28.60;16.80;;;;;;;;;;6244645;23;20004;-61
2022/12/10 11:19:55;;;;;;;30.25;15.93;;;;;;;;;;6244012;23;20055;-60
2022/12/10 11:22:22;;;;;;;27.40;15.23;;;;;;;;;;6244498;23;19996;-60
2022/12/10 11:24:49;;;;;;;31.02;16.20;;;;;;;;;;6243772;23;20004;-61
2022/12/10 11:27:21;;;;;;;26.83;17.00;;;;;;;;;;6244788;23;20004;-60
2022/12/10 11:29:47;;;;;;;;;;;;;;;;;;6244651;23;20008;-60
2022/12/10 11:32:32;;;;;;;23.77;13.90;;;;;;;;;;6244479;23;20273;-61
2022/12/10 11:35:08;;;;;;;27.52;13.77;;;;;;;;;;6243577;23;20012;-61
2022/12/10 11:37:37;;;;;;;28.33;14.38;;;;;;;;;;6242933;23;20054;-60
2022/12/10 11:40:11;;;;;;;24.42;14.65;;;;;;;;;;6242427;23;20083;-60
2022/12/10 11:43:00;;;;;;;27.95;15.93;;;;;;;;;;6243580;23;20080;-61
2022/12/10 11:45:29;;;;;;;26.40;14.30;;;;;;;;;;6121463;23;20456;-61
2022/12/10 11:48:15;;;;;;;22.48;12.43;;;;;;;;;;6121446;23;20014;-60
2022/12/10 11:50:43;;;;;;;18.58;11.25;;;;;;;;;;6122031;23;20519;-60
2022/12/10 11:53:24;;;;;;;18.85;11.05;;;;;;;;;;6121682;23;20045;-60
2022/12/10 11:55:50;;;;;;;30.23;17.00;;;;;;;;;;6121832;23;20014;-61
2022/12/10 11:58:34;;;;;;;33.10;17.83;;;;;;;;;;6122136;23;20447;-60
2022/12/10 12:01:00;;;;;;;26.92;14.77;;;;;;;;;;6122066;23;20010;-61
2022/12/10 12:03:38;;;;;;;24.52;13.00;;;;;;;;;;6122095;23;20010;-61
2022/12/10 12:06:25;;;;;;;30.13;14.35;;;;;;;;;;6121622;23;20014;-61
2022/12/10 12:08:57;;;;;;;41.78;20.90;;;;;;;;;;6062782;23;20019;-61
2022/12/10 12:11:34;;;;;;;26.27;14.20;;;;;;;;;;6064043;23;20011;-60
2022/12/10 12:14:05;;;;;;;18.40;10.52;;;;;;;;;;6063451;23;20023;-61
2022/12/10 12:16:34;;;;;;;17.65;10.75;;;;;;;;;;6063269;23;20021;-60
2022/12/10 12:19:12;;;;;;;27.65;10.98;;;;;;;;;;6062915;23;20007;-60
2022/12/10 12:21:39;;;;;;;11.82;7.40;;;;;;;;;;6077914;23;20550;-60
2022/12/10 12:24:11;;;;;;;9.10;6.63;;;;;;;;;;6150761;23;20006;-60
2022/12/10 12:26:38;;;;;;;8.23;5.60;;;;;;;;;;6150388;23;20009;-60
2022/12/10 12:29:13;;;;;;;10.07;6.13;;;;;;;;;;6149783;23;20018;-60
2022/12/10 12:31:41;;;;;;;12.75;6.10;;;;;;;;;;6150461;23;20453;-60
2022/12/10 12:34:24;;;;;;;8.27;5.00;;;;;;;;;;6148748;23;20006;-61
2022/12/10 12:36:50;;;;;;;8.63;6.00;;;;;;;;;;6149365;23;20033;-61
2022/12/10 12:39:32;;;;;;;10.52;5.25;;;;;;;;;;6150436;23;20005;-61
2022/12/10 12:42:07;;;;;;;12.27;6.07;;;;;;;;;;6150572;23;20467;-61
2022/12/10 12:44:33;;;;;;;7.07;4.90;;;;;;;;;;6150614;23;20010;-61
2022/12/10 12:47:02;;;;;;;10.93;5.75;;;;;;;;;;6237022;23;20085;-61
2022/12/10 12:49:31;;;;;;;8.85;5.78;;;;;;;;;;6241587;23;20007;-61
2022/12/10 12:52:16;;;;;;;8.43;5.35;;;;;;;;;;6241931;23;20091;-61
2022/12/10 12:54:42;;;;;;;9.70;4.95;;;;;;;;;;6242722;23;20058;-61
2022/12/10 12:57:14;;;;;;;9.40;5.05;;;;;;;;;;6243400;23;20007;-61
2022/12/10 12:59:53;;;;;;;14.63;6.65;;;;;;;;;;6243144;23;20001;-61
2022/12/10 13:02:27;;;;;;;9.40;4.63;;;;;;;;;;6243019;23;20069;-61
2022/12/10 13:04:53;;;;;;;8.30;5.18;;;;;;;;;;6243263;23;20039;-61
2022/12/10 13:07:19;;;;;;;9.65;5.50;;;;;;;;;;6242758;23;20004;-61
2022/12/10 13:09:52;;;;;;;11.77;6.15;;;;;;;;;;6243308;23;20015;-61
2022/12/10 13:12:29;;;;;;;12.63;7.75;;;;;;;;;;6243217;23;20030;-61
2022/12/10 13:14:55;;;;;;;12.40;6.95;;;;;;;;;;6243290;23;20012;-61
2022/12/10 13:17:31;;;;;;;11.20;6.40;;;;;;;;;;6243068;23;19996;-61
2022/12/10 13:20:16;;;;;;;9.10;5.85;;;;;;;;;;6242990;23;20011;-61
2022/12/10 13:22:44;;;;;;;12.82;5.40;;;;;;;;;;6243328;22;20004;-61
2022/12/10 13:25:14;;;;;;;15.77;8.13;;;;;;;;;;6243721;22;20000;-61
2022/12/10 13:27:41;;;;;;;11.40;7.07;;;;;;;;;;6243543;23;20028;-61
2022/12/10 13:30:07;;;;;;;12.82;7.05;;;;;;;;;;6243707;22;20032;-61
2022/12/10 13:32:33;;;;;;;12.32;5.05;;;;;;;;;;6243437;23;20103;-61
2022/12/10 13:35:08;;;;;;;9.90;5.78;;;;;;;;;;6244233;23;20058;-61
2022/12/10 13:37:38;;;;;;;8.43;5.10;;;;;;;;;;6244398;23;20031;-61
2022/12/10 13:40:09;;;;;;;11.85;5.32;;;;;;;;;;6244395;22;20381;-61
2022/12/10 13:45:22;;;;;;;9.23;5.03;;;;;;;;;;6244187;23;20004;-61
2022/12/10 13:47:55;;;;;;;11.23;5.55;;;;;;;;;;6244160;23;20004;-61
2022/12/10 13:50:30;;;;;;;9.55;4.78;;;;;;;;;;6243065;23;20004;-61
2022/12/10 13:52:56;;;;;;;8.27;4.95;;;;;;;;;;6244282;23;20012;-61
2022/12/10 13:55:25;;;;;;;11.43;4.65;;;;;;;;;;6243952;23;20066;-61
2022/12/10 13:57:51;;;;;;;12.50;4.95;;;;;;;;;;6243823;23;20473;-61
2022/12/10 14:00:29;;;;;;;9.98;4.70;;;;;;;;;;6243841;23;20326;-61
2022/12/10 14:03:01;;;;;;;9.25;3.97;;;;;;;;;;6244403;23;20000;-61
2022/12/10 14:05:28;;;;;;;7.32;3.92;;;;;;;;;;6243547;22;20349;-61
2022/12/10 14:07:55;;;;;;;7.75;4.40;;;;;;;;;;6243897;22;20451;-61
2022/12/10 14:10:24;;;;;;;9.77;4.53;;;;;;;;;;6243306;23;20008;-61
2022/12/10 14:12:50;;;;;;;8.10;4.13;;;;;;;;;;6243616;23;20019;-61
2022/12/10 14:15:24;;;;;;;7.10;4.53;;;;;;;;;;6243741;23;20004;-61
2022/12/10 14:17:51;;;;;;;7.85;4.70;;;;;;;;;;6243376;23;20032;-61
2022/12/10 14:20:19;;;;;;;10.65;4.05;;;;;;;;;;6244244;23;20004;-61
2022/12/10 14:22:51;;;;;;;9.05;4.75;;;;;;;;;;6244168;23;20005;-61
2022/12/10 14:25:19;;;;;;;7.28;4.38;;;;;;;;;;6244252;23;20035;-61
2022/12/10 14:27:52;;;;;;;9.00;4.93;;;;;;;;;;6243971;23;20083;-61
2022/12/10 14:30:23;;;;;;;7.68;4.28;;;;;;;;;;6243950;23;20079;-61
2022/12/10 14:32:50;;;;;;;10.20;4.65;;;;;;;;;;6243258;23;20035;-61
2022/12/10 14:35:18;;;;;;;7.53;4.45;;;;;;;;;;6244199;23;20011;-61
2022/12/10 14:37:46;;;;;;;8.27;5.18;;;;;;;;;;6243749;23;20008;-61
2022/12/10 14:40:32;;;;;;;6.97;4.32;;;;;;;;;;6244138;23;20023;-61